sensor_id;sensor_type;location;lat;lon;timestamp;pressure;altitude;pressure_sealevel;temperature;humidity
74433;BME280;62865;53.146;23.172;2023-07-20T00:00:38;1015.6;;;19.5;59
74433;BME280;62865;53.146;23.172;2023-07-20T00:05:56;1015.6;;;19.4;59.7
74433;BME280;62865;53.146;23.172;2023-07-20T00:10:16;1015.6;;;19.2;58.9
74433;BME280;62865;53.146;23.172;2023-07-20T00:15:42;1015.7;;;19.1;60.2
74433;BME280;62865;53.146;23.172;2023-07-20T00:20:42;1015.7;;;18.9;62.1
74433;BME280;62865;53.146;23.172;2023-07-20T00:25:58;1015.6;;;18.8;62.7
74433;BME280;62865;53.146;23.172;2023-07-20T00:30:58;1015.6;;;18.6;63.1
74433;BME280;62865;53.146;23.172;2023-07-20T00:35:22;1015.6;;;18.5;63.7
74433;BME280;62865;53.146;23.172;2023-07-20T00:40:58;1015.5;;;18.4;64.4
74433;BME280;62865;53.146;23.172;2023-07-20T00:45:30;1015.6;;;18.4;64.6
74433;BME280;62865;53.146;23.172;2023-07-20T00:50:10;1015.6;;;18.4;64.5
74433;BME280;62865;53.146;23.172;2023-07-20T00:55:42;1015.7;;;18.3;64.4
74433;BME280;62865;53.146;23.172;2023-07-20T01:00:38;1015.7;;;18.3;64.7
74433;BME280;62865;53.146;23.172;2023-07-20T01:05:51;1015.7;;;18.2;65
74433;BME280;62865;53.146;23.172;2023-07-20T01:10:37;1015.7;;;18.1;65.5
74433;BME280;62865;53.146;23.172;2023-07-20T01:16:00;1015.7;;;18;65.9
74433;BME280;62865;53.146;23.172;2023-07-20T01:20:38;1015.7;;;17.9;66.1
74433;BME280;62865;53.146;23.172;2023-07-20T01:26:02;1015.7;;;18;66.1
74433;BME280;62865;53.146;23.172;2023-07-20T01:30:14;1015.6;;;18;66.3
74433;BME280;62865;53.146;23.172;2023-07-20T01:35:58;1015.6;;;17.9;66.9
74433;BME280;62865;53.146;23.172;2023-07-20T01:40:50;1015.6;;;17.8;67.5
74433;BME280;62865;53.146;23.172;2023-07-20T01:45:42;1015.6;;;17.7;68.1
74433;BME280;62865;53.146;23.172;2023-07-20T01:50:10;1015.5;;;17.7;68.2
74433;BME280;62865;53.146;23.172;2023-07-20T01:55:10;1015.5;;;17.6;68.4
74433;BME280;62865;53.146;23.172;2023-07-20T02:00:58;1015.5;;;17.5;68.7
74433;BME280;62865;53.146;23.172;2023-07-20T02:05:34;1015.4;;;17.4;70
74433;BME280;62865;53.146;23.172;2023-07-20T02:10:30;1015.4;;;17.4;69.8
74433;BME280;62865;53.146;23.172;2023-07-20T02:15:58;1015.5;;;17.3;70.1
74433;BME280;62865;53.146;23.172;2023-07-20T02:20:58;1015.6;;;17.3;70.3
74433;BME280;62865;53.146;23.172;2023-07-20T02:25:34;1015.6;;;17.3;70
74433;BME280;62865;53.146;23.172;2023-07-20T02:30:16;1015.5;;;17.3;70
74433;BME280;62865;53.146;23.172;2023-07-20T02:35:50;1015.5;;;17.3;70.2
74433;BME280;62865;53.146;23.172;2023-07-20T02:40:32;1015.6;;;17.3;70.2
74433;BME280;62865;53.146;23.172;2023-07-20T02:45:28;1015.6;;;17.4;70.2
74433;BME280;62865;53.146;23.172;2023-07-20T02:50:16;1015.6;;;17.4;70.3
74433;BME280;62865;53.146;23.172;2023-07-20T02:55:58;1015.6;;;17.3;70.7
74433;BME280;62865;53.146;23.172;2023-07-20T03:00:10;1015.7;;;17.1;71.3
74433;BME280;62865;53.146;23.172;2023-07-20T03:05:10;1015.7;;;17;71.9
74433;BME280;62865;53.146;23.172;2023-07-20T03:10:58;1015.8;;;16.9;72.3
74433;BME280;62865;53.146;23.172;2023-07-20T03:15:32;1015.8;;;16.9;72.3
74433;BME280;62865;53.146;23.172;2023-07-20T03:20:58;1015.8;;;17;72.2
74433;BME280;62865;53.146;23.172;2023-07-20T03:25:16;1015.7;;;17;72.2
74433;BME280;62865;53.146;23.172;2023-07-20T03:30:16;1015.7;;;17;72.3
74433;BME280;62865;53.146;23.172;2023-07-20T03:35:24;1015.8;;;17;72.6
74433;BME280;62865;53.146;23.172;2023-07-20T03:40:48;1015.7;;;17.2;72.2
74433;BME280;62865;53.146;23.172;2023-07-20T03:50:38;1015.6;;;17.7;70.5
74433;BME280;62865;53.146;23.172;2023-07-20T03:55:24;1015.7;;;18.1;69.2
74433;BME280;62865;53.146;23.172;2023-07-20T04:00:10;1015.8;;;18.5;68
74433;BME280;62865;53.146;23.172;2023-07-20T04:05:16;1015.8;;;18.6;67.3
74433;BME280;62865;53.146;23.172;2023-07-20T04:10:58;1015.9;;;18.6;67.3
74433;BME280;62865;53.146;23.172;2023-07-20T04:15:58;1015.9;;;18.6;67.2
74433;BME280;62865;53.146;23.172;2023-07-20T04:20:24;1015.9;;;18.7;66.8
74433;BME280;62865;53.146;23.172;2023-07-20T04:25:38;1015.9;;;18.6;67.2
74433;BME280;62865;53.146;23.172;2023-07-20T04:31:09;1015.9;;;18.7;66.9
74433;BME280;62865;53.146;23.172;2023-07-20T04:35:10;1015.9;;;18.6;67.2
74433;BME280;62865;53.146;23.172;2023-07-20T04:40:16;1015.8;;;18.6;67.3
74433;BME280;62865;53.146;23.172;2023-07-20T04:45:18;1015.8;;;18.9;66.7
74433;BME280;62865;53.146;23.172;2023-07-20T04:50:58;1015.9;;;19.1;65.9
74433;BME280;62865;53.146;23.172;2023-07-20T04:55:12;1015.8;;;19.2;65.6
74433;BME280;62865;53.146;23.172;2023-07-20T05:00:10;1015.8;;;19.1;65.6
74433;BME280;62865;53.146;23.172;2023-07-20T05:05:56;1015.9;;;19.1;65.7
74433;BME280;62865;53.146;23.172;2023-07-20T05:10:10;1016;;;19.4;65.2
74433;BME280;62865;53.146;23.172;2023-07-20T05:15:42;1015.9;;;19.4;65
74433;BME280;62865;53.146;23.172;2023-07-20T05:20:42;1015.9;;;19.3;65.2
74433;BME280;62865;53.146;23.172;2023-07-20T05:25:38;1015.9;;;19.4;65
74433;BME280;62865;53.146;23.172;2023-07-20T05:30:36;1015.9;;;19.5;64.5
74433;BME280;62865;53.146;23.172;2023-07-20T05:35:42;1015.9;;;19.4;64.3
74433;BME280;62865;53.146;23.172;2023-07-20T05:40:44;1015.9;;;19.2;64.4
74433;BME280;62865;53.146;23.172;2023-07-20T05:45:16;1015.8;;;18.9;65.6
74433;BME280;62865;53.146;23.172;2023-07-20T05:50:58;1015.8;;;18.9;66.1
74433;BME280;62865;53.146;23.172;2023-07-20T05:55:58;1015.8;;;19.3;64.8
74433;BME280;62865;53.146;23.172;2023-07-20T06:00:58;1015.8;;;19.7;63.5
74433;BME280;62865;53.146;23.172;2023-07-20T06:05:50;1015.7;;;19.8;62.7
74433;BME280;62865;53.146;23.172;2023-07-20T06:10:56;1015.7;;;19.7;62.7
74433;BME280;62865;53.146;23.172;2023-07-20T06:15:24;1015.7;;;19.8;62.4
74433;BME280;62865;53.146;23.172;2023-07-20T06:20:10;1015.7;;;19.5;63
74433;BME280;62865;53.146;23.172;2023-07-20T06:25:58;1015.8;;;19.2;64.2
74433;BME280;62865;53.146;23.172;2023-07-20T06:30:40;1015.9;;;19.2;64.6
74433;BME280;62865;53.146;23.172;2023-07-20T06:35:16;1015.8;;;18.9;66
74433;BME280;62865;53.146;23.172;2023-07-20T06:40:58;1015.8;;;18.8;66.5
74433;BME280;62865;53.146;23.172;2023-07-20T06:45:58;1015.9;;;19;65.5
74433;BME280;62865;53.146;23.172;2023-07-20T06:50:10;1015.9;;;19.2;64.2
74433;BME280;62865;53.146;23.172;2023-07-20T06:55:16;1015.9;;;19.4;63.3
74433;BME280;62865;53.146;23.172;2023-07-20T07:00:50;1015.9;;;19.7;62.3
74433;BME280;62865;53.146;23.172;2023-07-20T07:05:50;1015.9;;;19.9;61
74433;BME280;62865;53.146;23.172;2023-07-20T07:10:30;1015.9;;;20.1;60.8
74433;BME280;62865;53.146;23.172;2023-07-20T07:15:22;1015.9;;;20.2;59.9
74433;BME280;62865;53.146;23.172;2023-07-20T07:20:10;1015.9;;;20.5;59.3
74433;BME280;62865;53.146;23.172;2023-07-20T07:25:28;1016;;;20.7;59
74433;BME280;62865;53.146;23.172;2023-07-20T07:30:34;1016;;;20.5;59.2
74433;BME280;62865;53.146;23.172;2023-07-20T07:35:58;1016.1;;;20.2;60.7
74433;BME280;62865;53.146;23.172;2023-07-20T07:40:38;1016.1;;;20.3;61.9
74433;BME280;62865;53.146;23.172;2023-07-20T07:45:58;1016.2;;;20.5;61.4
74433;BME280;62865;53.146;23.172;2023-07-20T07:50:16;1016.3;;;20.6;61.5
74433;BME280;62865;53.146;23.172;2023-07-20T07:55:16;1016.4;;;20.8;62.3
74433;BME280;62865;53.146;23.172;2023-07-20T08:00:10;1016.5;;;20.8;60.6
74433;BME280;62865;53.146;23.172;2023-07-20T08:05:10;1016.5;;;21;59.8
74433;BME280;62865;53.146;23.172;2023-07-20T08:10:30;1016.5;;;21.4;59.1
74433;BME280;62865;53.146;23.172;2023-07-20T08:15:38;1016.6;;;21.8;58.1
74433;BME280;62865;53.146;23.172;2023-07-20T08:20:38;1016.6;;;21.7;58.2
74433;BME280;62865;53.146;23.172;2023-07-20T08:25:22;1016.6;;;21.6;57.6
74433;BME280;62865;53.146;23.172;2023-07-20T08:30:10;1016.5;;;21.6;58.3
74433;BME280;62865;53.146;23.172;2023-07-20T08:35:58;1016.5;;;21.9;57.3
74433;BME280;62865;53.146;23.172;2023-07-20T08:40:58;1016.5;;;21.8;57
74433;BME280;62865;53.146;23.172;2023-07-20T08:45:30;1016.4;;;21.9;57.1
74433;BME280;62865;53.146;23.172;2023-07-20T08:50:32;1016.4;;;21.9;56.5
74433;BME280;62865;53.146;23.172;2023-07-20T08:55:58;1016.4;;;21.9;56.7
74433;BME280;62865;53.146;23.172;2023-07-20T09:00:16;1016.5;;;22;56.9
74433;BME280;62865;53.146;23.172;2023-07-20T09:05:16;1016.5;;;21.9;58.1
74433;BME280;62865;53.146;23.172;2023-07-20T09:10:40;1016.4;;;21.9;58.9
74433;BME280;62865;53.146;23.172;2023-07-20T09:15:56;1016.4;;;21.6;59.6
74433;BME280;62865;53.146;23.172;2023-07-20T09:20:48;1016.5;;;21.3;60.7
74433;BME280;62865;53.146;23.172;2023-07-20T09:25:22;1016.5;;;21.2;60.8
74433;BME280;62865;53.146;23.172;2023-07-20T09:30:56;1016.5;;;21;61.4
74433;BME280;62865;53.146;23.172;2023-07-20T09:35:30;1016.4;;;20.9;61.3
74433;BME280;62865;53.146;23.172;2023-07-20T09:40:10;1016.4;;;20.9;61.1
74433;BME280;62865;53.146;23.172;2023-07-20T09:45:18;1016.5;;;20.8;61.6
74433;BME280;62865;53.146;23.172;2023-07-20T09:50:39;1016.5;;;20.6;62.1
74433;BME280;62865;53.146;23.172;2023-07-20T09:55:46;1016.6;;;20.6;62.3
74433;BME280;62865;53.146;23.172;2023-07-20T10:00:12;1016.6;;;20.6;62.6
74433;BME280;62865;53.146;23.172;2023-07-20T10:06:00;1016.6;;;20.6;62.4
74433;BME280;62865;53.146;23.172;2023-07-20T10:10:31;1016.5;;;20.4;63.3
74433;BME280;62865;53.146;23.172;2023-07-20T10:15:59;1016.6;;;20.3;64.2
74433;BME280;62865;53.146;23.172;2023-07-20T10:20:35;1016.7;;;20.1;65.5
74433;BME280;62865;53.146;23.172;2023-07-20T10:25:58;1016.6;;;20.1;65.1
74433;BME280;62865;53.146;23.172;2023-07-20T10:30:58;1016.6;;;20.1;65.7
74433;BME280;62865;53.146;23.172;2023-07-20T10:36:00;1016.6;;;20.1;66.2
74433;BME280;62865;53.146;23.172;2023-07-20T10:40:42;1016.6;;;20;65.8
74433;BME280;62865;53.146;23.172;2023-07-20T10:45:16;1016.7;;;20;66.6
74433;BME280;62865;53.146;23.172;2023-07-20T10:51:14;1016.7;;;19.9;66.4
74433;BME280;62865;53.146;23.172;2023-07-20T10:55:40;1016.7;;;19.9;66.8
74433;BME280;62865;53.146;23.172;2023-07-20T11:00:10;1016.7;;;20;66.2
74433;BME280;62865;53.146;23.172;2023-07-20T11:05:44;1016.7;;;20.1;66.4
74433;BME280;62865;53.146;23.172;2023-07-20T11:11:20;1016.8;;;20.4;65.1
74433;BME280;62865;53.146;23.172;2023-07-20T11:15:34;1016.7;;;20.7;64.1
74433;BME280;62865;53.146;23.172;2023-07-20T11:20:42;1016.6;;;20.9;64
74433;BME280;62865;53.146;23.172;2023-07-20T11:25:58;1016.6;;;20.8;63.3
74433;BME280;62865;53.146;23.172;2023-07-20T11:30:51;1016.6;;;20.9;62.6
74433;BME280;62865;53.146;23.172;2023-07-20T11:35:50;1016.5;;;21.4;60.2
74433;BME280;62865;53.146;23.172;2023-07-20T11:40:16;1016.6;;;21.9;59.6
74433;BME280;62865;53.146;23.172;2023-07-20T11:45:10;1016.5;;;22.2;58.7
74433;BME280;62865;53.146;23.172;2023-07-20T11:50:28;1016.5;;;22.4;58.9
74433;BME280;62865;53.146;23.172;2023-07-20T11:55:10;1016.4;;;22.6;57.8
74433;BME280;62865;53.146;23.172;2023-07-20T12:00:58;1016.4;;;22.4;58.6
74433;BME280;62865;53.146;23.172;2023-07-20T12:05:38;1016.4;;;22.1;58.9
74433;BME280;62865;53.146;23.172;2023-07-20T12:10:58;1016.4;;;22.3;57.9
74433;BME280;62865;53.146;23.172;2023-07-20T12:15:16;1016.4;;;22.3;56.7
74433;BME280;62865;53.146;23.172;2023-07-20T12:20:24;1016.3;;;22.3;55.8
74433;BME280;62865;53.146;23.172;2023-07-20T12:25:10;1016.3;;;22.5;55.5
74433;BME280;62865;53.146;23.172;2023-07-20T12:30:34;1016.2;;;22.7;54.9
74433;BME280;62865;53.146;23.172;2023-07-20T12:35:14;1016.2;;;22.6;54.9
74433;BME280;62865;53.146;23.172;2023-07-20T12:40:36;1016;;;22.9;54.7
74433;BME280;62865;53.146;23.172;2023-07-20T12:45:38;1015.9;;;23.3;53.8
74433;BME280;62865;53.146;23.172;2023-07-20T12:50:22;1015.9;;;23.8;52.9
74433;BME280;62865;53.146;23.172;2023-07-20T12:55:16;1015.9;;;24.4;49.8
74433;BME280;62865;53.146;23.172;2023-07-20T13:00:58;1015.8;;;24.5;49.9
74433;BME280;62865;53.146;23.172;2023-07-20T13:05:59;1015.7;;;24.8;49.4
74433;BME280;62865;53.146;23.172;2023-07-20T13:10:16;1015.7;;;25.3;47.2
74433;BME280;62865;53.146;23.172;2023-07-20T13:15:39;1015.7;;;25.3;47.6
74433;BME280;62865;53.146;23.172;2023-07-20T13:20:58;1015.6;;;25.3;47.7
74433;BME280;62865;53.146;23.172;2023-07-20T13:25:30;1015.6;;;24.8;48
74433;BME280;62865;53.146;23.172;2023-07-20T13:30:22;1015.6;;;25.1;47.7
74433;BME280;62865;53.146;23.172;2023-07-20T13:35:42;1015.5;;;25.8;46
74433;BME280;62865;53.146;23.172;2023-07-20T13:40:56;1015.5;;;26.4;45.1
74433;BME280;62865;53.146;23.172;2023-07-20T13:45:58;1015.5;;;26.7;43.7
74433;BME280;62865;53.146;23.172;2023-07-20T13:50:22;1015.4;;;27;42.7
74433;BME280;62865;53.146;23.172;2023-07-20T13:55:58;1015.4;;;27.2;42.2
74433;BME280;62865;53.146;23.172;2023-07-20T14:00:16;1015.3;;;26.8;42.4
74433;BME280;62865;53.146;23.172;2023-07-20T14:05:16;1015.4;;;26;43.6
74433;BME280;62865;53.146;23.172;2023-07-20T14:10:42;1015.4;;;25.6;44.5
74433;BME280;62865;53.146;23.172;2023-07-20T14:15:58;1015.4;;;25.7;44.4
74433;BME280;62865;53.146;23.172;2023-07-20T14:20:50;1015.4;;;25;45.5
74433;BME280;62865;53.146;23.172;2023-07-20T14:25:18;1015.4;;;24.6;46.4
74433;BME280;62865;53.146;23.172;2023-07-20T14:30:58;1015.4;;;24.6;46.5
74433;BME280;62865;53.146;23.172;2023-07-20T14:35:30;1015.4;;;24.5;47.2
74433;BME280;62865;53.146;23.172;2023-07-20T14:40:58;1015.4;;;24.4;47.8
74433;BME280;62865;53.146;23.172;2023-07-20T14:45:10;1015.5;;;24.6;47.5
74433;BME280;62865;53.146;23.172;2023-07-20T14:50:58;1015.4;;;24.8;47.5
74433;BME280;62865;53.146;23.172;2023-07-20T14:55:50;1015.4;;;24.8;46.8
74433;BME280;62865;53.146;23.172;2023-07-20T15:00:36;1015.5;;;25;46.6
74433;BME280;62865;53.146;23.172;2023-07-20T15:05:10;1015.6;;;24.8;46.8
74433;BME280;62865;53.146;23.172;2023-07-20T15:10:36;1015.6;;;24.8;46.9
74433;BME280;62865;53.146;23.172;2023-07-20T15:15:50;1015.5;;;24.4;47.8
74433;BME280;62865;53.146;23.172;2023-07-20T15:20:19;1015.5;;;24;48.4
74433;BME280;62865;53.146;23.172;2023-07-20T15:25:58;1015.6;;;23.7;48.9
74433;BME280;62865;53.146;23.172;2023-07-20T15:30:42;1015.6;;;23.6;49.3
74433;BME280;62865;53.146;23.172;2023-07-20T15:35:58;1015.6;;;23.5;49.5
74433;BME280;62865;53.146;23.172;2023-07-20T15:40:10;1015.5;;;23.4;49.3
74433;BME280;62865;53.146;23.172;2023-07-20T15:45:10;1015.5;;;23.3;48.8
74433;BME280;62865;53.146;23.172;2023-07-20T15:50:58;1015.5;;;23.3;48.7
74433;BME280;62865;53.146;23.172;2023-07-20T15:55:52;1015.5;;;23.2;49
74433;BME280;62865;53.146;23.172;2023-07-20T16:00:14;1015.5;;;23.1;49.8
74433;BME280;62865;53.146;23.172;2023-07-20T16:05:10;1015.5;;;23;50.3
74433;BME280;62865;53.146;23.172;2023-07-20T16:10:10;1015.5;;;23.1;50.3
74433;BME280;62865;53.146;23.172;2023-07-20T16:15:16;1015.5;;;23.4;49.4
74433;BME280;62865;53.146;23.172;2023-07-20T16:20:11;1015.5;;;23.3;49.3
74433;BME280;62865;53.146;23.172;2023-07-20T16:25:58;1015.7;;;23.2;49.1
74433;BME280;62865;53.146;23.172;2023-07-20T16:30:38;1015.8;;;22.9;49.2
74433;BME280;62865;53.146;23.172;2023-07-20T16:35:58;1015.8;;;22.5;48.9
74433;BME280;62865;53.146;23.172;2023-07-20T16:40:16;1015.8;;;22.2;49.7
74433;BME280;62865;53.146;23.172;2023-07-20T16:45:10;1015.8;;;22;49.8
74433;BME280;62865;53.146;23.172;2023-07-20T16:50:16;1015.9;;;21.8;50
74433;BME280;62865;53.146;23.172;2023-07-20T16:55:10;1015.9;;;21.5;50.5
74433;BME280;62865;53.146;23.172;2023-07-20T17:00:30;1015.9;;;21.3;51.1
74433;BME280;62865;53.146;23.172;2023-07-20T17:05:38;1015.9;;;21.2;51.4
74433;BME280;62865;53.146;23.172;2023-07-20T17:10:38;1016;;;21;52.1
74433;BME280;62865;53.146;23.172;2023-07-20T17:15:10;1016;;;20.7;53.6
74433;BME280;62865;53.146;23.172;2023-07-20T17:20:10;1016.2;;;20.6;54.5
74433;BME280;62865;53.146;23.172;2023-07-20T17:25:58;1016.5;;;20.2;56.9
74433;BME280;62865;53.146;23.172;2023-07-20T17:30:58;1016.9;;;18.5;62.9
74433;BME280;62865;53.146;23.172;2023-07-20T17:35:30;1016.9;;;17.5;65.7
74433;BME280;62865;53.146;23.172;2023-07-20T17:40:38;1016.9;;;17.2;68.8
74433;BME280;62865;53.146;23.172;2023-07-20T17:45:38;1017;;;17;69.6
74433;BME280;62865;53.146;23.172;2023-07-20T17:50:10;1017;;;16.9;69.7
74433;BME280;62865;53.146;23.172;2023-07-20T17:55:32;1016.9;;;16.7;71.3
74433;BME280;62865;53.146;23.172;2023-07-20T18:00:42;1017;;;16.6;72.7
74433;BME280;62865;53.146;23.172;2023-07-20T18:06:02;1017;;;16.6;72.9
74433;BME280;62865;53.146;23.172;2023-07-20T18:15:16;1016.9;;;16.5;73
74433;BME280;62865;53.146;23.172;2023-07-20T18:20:58;1016.8;;;16.5;73.6
74433;BME280;62865;53.146;23.172;2023-07-20T18:25:10;1016.7;;;16.6;74.4
74433;BME280;62865;53.146;23.172;2023-07-20T18:30:10;1016.6;;;16.7;73.9
74433;BME280;62865;53.146;23.172;2023-07-20T18:35:42;1016.6;;;16.8;74.1
74433;BME280;62865;53.146;23.172;2023-07-20T18:40:38;1016.6;;;17;74.9
74433;BME280;62865;53.146;23.172;2023-07-20T18:45:52;1016.7;;;17.1;74.7
74433;BME280;62865;53.146;23.172;2023-07-20T18:50:42;1016.7;;;17.2;73.1
74433;BME280;62865;53.146;23.172;2023-07-20T18:55:10;1016.6;;;17.3;75
74433;BME280;62865;53.146;23.172;2023-07-20T19:00:16;1016.7;;;17.3;74.9
74433;BME280;62865;53.146;23.172;2023-07-20T19:05:58;1016.8;;;17.3;73.8
74433;BME280;62865;53.146;23.172;2023-07-20T19:10:36;1016.9;;;17.3;74.2
74433;BME280;62865;53.146;23.172;2023-07-20T19:15:30;1016.9;;;17.3;74.7
74433;BME280;62865;53.146;23.172;2023-07-20T19:20:58;1017;;;17.1;75.3
74433;BME280;62865;53.146;23.172;2023-07-20T19:26:02;1017.1;;;17.1;75.9
74433;BME280;62865;53.146;23.172;2023-07-20T19:30:34;1017.2;;;17;76.2
74433;BME280;62865;53.146;23.172;2023-07-20T19:35:42;1017.2;;;16.9;75.2
74433;BME280;62865;53.146;23.172;2023-07-20T19:40:18;1017.2;;;16.9;74.5
74433;BME280;62865;53.146;23.172;2023-07-20T19:45:50;1017.3;;;17;74
74433;BME280;62865;53.146;23.172;2023-07-20T19:50:30;1017.4;;;16.8;74.8
74433;BME280;62865;53.146;23.172;2023-07-20T19:55:10;1017.4;;;16.7;75.8
74433;BME280;62865;53.146;23.172;2023-07-20T20:00:58;1017.5;;;16.7;75.7
74433;BME280;62865;53.146;23.172;2023-07-20T20:05:16;1017.5;;;16.6;76.1
74433;BME280;62865;53.146;23.172;2023-07-20T20:10:10;1017.5;;;16.5;76.7
74433;BME280;62865;53.146;23.172;2023-07-20T20:15:58;1017.6;;;16.3;77.3
74433;BME280;62865;53.146;23.172;2023-07-20T20:20:50;1017.7;;;16.2;77.8
74433;BME280;62865;53.146;23.172;2023-07-20T20:25:24;1017.6;;;16.1;78.2
74433;BME280;62865;53.146;23.172;2023-07-20T20:30:58;1017.7;;;16.1;78.2
74433;BME280;62865;53.146;23.172;2023-07-20T20:35:10;1017.7;;;15.9;78.7
74433;BME280;62865;53.146;23.172;2023-07-20T20:40:16;1017.7;;;15.7;79.8
74433;BME280;62865;53.146;23.172;2023-07-20T20:45:34;1017.8;;;15.6;80.4
74433;BME280;62865;53.146;23.172;2023-07-20T20:50:58;1017.8;;;15.4;81
74433;BME280;62865;53.146;23.172;2023-07-20T20:55:38;1017.9;;;15.3;81.4
74433;BME280;62865;53.146;23.172;2023-07-20T21:00:58;1017.9;;;15.2;81.6
74433;BME280;62865;53.146;23.172;2023-07-20T21:05:22;1017.9;;;15.1;81.9
74433;BME280;62865;53.146;23.172;2023-07-20T21:10:16;1018;;;15.1;82.5
74433;BME280;62865;53.146;23.172;2023-07-20T21:15:10;1017.9;;;15;82.2
74433;BME280;62865;53.146;23.172;2023-07-20T21:20:34;1018;;;15;82.2
74433;BME280;62865;53.146;23.172;2023-07-20T21:25:30;1018;;;14.9;82.3
74433;BME280;62865;53.146;23.172;2023-07-20T21:30:38;1018;;;14.8;82.3
74433;BME280;62865;53.146;23.172;2023-07-20T21:35:39;1018.1;;;14.7;82.6
74433;BME280;62865;53.146;23.172;2023-07-20T21:40:22;1018.1;;;14.7;82.5
74433;BME280;62865;53.146;23.172;2023-07-20T21:45:10;1018.1;;;14.7;82.4
74433;BME280;62865;53.146;23.172;2023-07-20T21:50:56;1018.1;;;14.7;82.1
74433;BME280;62865;53.146;23.172;2023-07-20T21:55:37;1018.1;;;14.7;82.5
74433;BME280;62865;53.146;23.172;2023-07-20T22:00:30;1018.1;;;14.7;82.6
74433;BME280;62865;53.146;23.172;2023-07-20T22:05:40;1018.1;;;14.6;82.8
74433;BME280;62865;53.146;23.172;2023-07-20T22:10:38;1018.1;;;14.6;83
74433;BME280;62865;53.146;23.172;2023-07-20T22:15:30;1018.1;;;14.5;83
74433;BME280;62865;53.146;23.172;2023-07-20T22:20:12;1018.2;;;14.5;83.2
74433;BME280;62865;53.146;23.172;2023-07-20T22:25:42;1018.2;;;14.4;83.5
74433;BME280;62865;53.146;23.172;2023-07-20T22:30:58;1018.3;;;14.4;83.6
74433;BME280;62865;53.146;23.172;2023-07-20T22:35:58;1018.3;;;14.4;83.7
74433;BME280;62865;53.146;23.172;2023-07-20T22:40:22;1018.2;;;14.3;84
74433;BME280;62865;53.146;23.172;2023-07-20T22:45:58;1018.3;;;14.3;84
74433;BME280;62865;53.146;23.172;2023-07-20T22:50:16;1018.3;;;14.3;84.2
74433;BME280;62865;53.146;23.172;2023-07-20T22:55:58;1018.4;;;14.2;84.4
74433;BME280;62865;53.146;23.172;2023-07-20T23:00:34;1018.5;;;14.2;84.5
74433;BME280;62865;53.146;23.172;2023-07-20T23:05:58;1018.5;;;14.1;85
74433;BME280;62865;53.146;23.172;2023-07-20T23:10:50;1018.5;;;14.1;85
74433;BME280;62865;53.146;23.172;2023-07-20T23:15:58;1018.5;;;14.1;85.3
74433;BME280;62865;53.146;23.172;2023-07-20T23:20:16;1018.5;;;14.1;85.5
74433;BME280;62865;53.146;23.172;2023-07-20T23:25:17;1018.4;;;14;85.8
74433;BME280;62865;53.146;23.172;2023-07-20T23:30:58;1018.5;;;14;86.1
74433;BME280;62865;53.146;23.172;2023-07-20T23:35:10;1018.5;;;14;86.2
74433;BME280;62865;53.146;23.172;2023-07-20T23:40:30;1018.5;;;14;86.3
74433;BME280;62865;53.146;23.172;2023-07-20T23:45:38;1018.4;;;14;86.5
74433;BME280;62865;53.146;23.172;2023-07-20T23:50:42;1018.4;;;14;86.3
74433;BME280;62865;53.146;23.172;2023-07-20T23:55:11;1018.4;;;14;86.5
